ニース/コート・ダジュール の空港の天気 - METARとTAF

コート・ダジュール空港(ニース) ( LFMN / NCE ) - フランス ニース
飛行場実況気象(Metar)
観測時間06/16 11:00 CEST (06/16 09:00 UTC)
風向・風速東 5m/s
視程10km以上
天気現象
少しの雲 雲底高度 370m
気温23℃
湿度73%
気圧1016hPa
METARLFMN 160900Z 10009KT 9999 FEW012 23/18 Q1016 NOSIG
過去の天気等 Google飛行場航空写真 Wunderground天気予報

過去48時間のMETAR

飛行場予報(TAF)
発表時間: 6/16 10:00 CEST (6/16 08:00 UTC)
予報対象時間: 16日11時 CEST ~ 17日17時 CEST
風向・風速東 5m/s
視程10km以上
全天の4割程度の雲 雲底高度 910m
16日20時 CEST ~ 16日22時 CEST に徐々に
風向・風速不定 2m/s
全天の8割程度の雲 雲底高度 370m
17日9時 CEST ~ 17日11時 CEST に徐々に
風向・風速南 4m/s
TAF LFMN 160800Z 1609/1715 10010KT 9999 SCT030
BECMG 1618/1620 VRB04KT BKN012
BECMG 1707/1709 18008KT